Thunder radar more information blitzortung!


Radar de pluja more information rain snow radar


Visita la nostra xarxa de llocs de meteo:

Template documentation
and downloads

And another site



Wind From: 11-12-2017 11:00 Until: 14:59 warning for: Wind Level: Yellow info button

Pagina Historial Weather Underground text

Diari Resum Agost 3, 2017 Unitats:  Imperial    Mètric   Tant
« Previous Dia
SegĂźent Dia »
Diari Setmana Mensual Anual Personalitzada
  Maxima: Minima: Media:
Temperatura: 100.9 °F 74.1 °F 88 °F
Punt de rosada: 69.8 °F 53.4 °F 61.3 °F
Humitat: 64 % 29 % 42 %
Wind Speed: 18.7 mph 0 mph 3.9 mph
RĂ fegues de vent: 18.7 mph - -
Vent:- - SE
Pression baro: 30 in 29.8 in -
Precipitacions: 0 in    
Historical Graphs
 
 
Dades de taula per Agost 3, 2017
Temps Temperatura Punt de rosada Pression baro Vent Wind Speed RĂ fegues de vent Humitat Rainfall Rate (Hourly)
00:01 81.7 °F 60.1 °F 30 in SW 2.3 mph 2.3 mph 48 % 0 in
00:05 76.8 °F 59.9 °F 30 in Calm   2 mph 56 % 0 in
00:15 76.3 °F 59.4 °F 30 in WSW 2 mph 2 mph 56 % 0 in
00:25 75.9 °F 59.5 °F 30 in Calm   3 mph 57 % 0 in
00:35 75.9 °F 59.5 °F 30 in SW 1 mph 3 mph 57 % 0 in
00:45 75.7 °F 59.9 °F 30 in SW 1 mph 2 mph 58 % 0 in
00:55 75.6 °F 59.7 °F 30 in Calm   2 mph 58 % 0 in
01:05 75.6 °F 59.7 °F 30 in West 2 mph 3 mph 58 % 0 in
01:15 76.1 °F 60.3 °F 30 in West 1 mph 2 mph 58 % 0 in
01:25 75.9 °F 60.6 °F 30 in West 1 mph 2 mph 59 % 0 in
01:35 75.7 °F 60.4 °F 30 in North 1 mph 1 mph 59 % 0 in
01:45 75.7 °F 60.4 °F 30 in Calm   1 mph 59 % 0 in
01:55 75.2 °F 59.9 °F 30 in Calm     59 % 0 in
02:05 75.2 °F 60.4 °F 30 in Calm   1 mph 60 % 0 in
02:15 74.5 °F 60.1 °F 30 in WNW 1 mph 2 mph 61 % 0 in
02:25 74.1 °F 59.7 °F 30 in WSW 1 mph 2 mph 61 % 0 in
02:35 74.7 °F 60.3 °F 30 in WSW 2 mph 2 mph 61 % 0 in
02:45 74.7 °F 60.3 °F 30 in WSW 2 mph 3 mph 61 % 0 in
02:55 75.2 °F 60.8 °F 29.9 in WSW 1 mph 2 mph 61 % 0 in
03:05 75.9 °F 61 °F 29.9 in WSW 2 mph 3 mph 60 % 0 in
03:15 76.8 °F 61.9 °F 29.9 in SW 1 mph 2 mph 60 % 0 in
03:25 77.4 °F 61.3 °F 29.9 in SW 2 mph 3 mph 58 % 0 in
03:35 77.9 °F 61.9 °F 29.9 in SW 1 mph 2 mph 58 % 0 in
03:45 79.5 °F 63.3 °F 29.9 in West 1 mph 2 mph 58 % 0 in
03:55 81 °F 63.3 °F 29.9 in NNE 3 mph 4 mph 55 % 0 in
04:05 81.3 °F 63.7 °F 29.9 in NNW 1 mph 4 mph 55 % 0 in
04:15 82.6 °F 64.2 °F 29.9 in NW 1 mph 3 mph 54 % 0 in
04:25 83.5 °F 64.6 °F 29.9 in NW 1 mph 3 mph 53 % 0 in
04:35 84 °F 64.9 °F 29.9 in WNW 2 mph 2 mph 53 % 0 in
04:45 85.3 °F 64.6 °F 29.9 in WNW 1 mph 4 mph 50 % 0 in
04:55 86.4 °F 64.9 °F 29.9 in West 1 mph 2 mph 49 % 0 in
05:05 87.1 °F 65.7 °F 29.9 in NNE 1 mph 4 mph 49 % 0 in
05:15 88 °F 65.1 °F 29.9 in NNE 1 mph 3 mph 47 % 0 in
05:25 88.7 °F 65.8 °F 29.9 in NNE 2 mph 5 mph 47 % 0 in
05:35 90.5 °F 66.4 °F 29.9 in NNE 1 mph 2 mph 45 % 0 in
05:45 91.4 °F 65.8 °F 29.9 in NNE 3 mph 3 mph 43 % 0 in
10:54 92.3 °F 65.8 °F 29.9 in WSW 3.5 mph   42 % 0 in
10:59 93.4 °F 66.9 °F 29.9 in North 2.3 mph 2.3 mph 42 % 0 in
11:04 93 °F 65.8 °F 29.9 in North 3.5 mph 3.5 mph 41 % 0 in
11:09 93.2 °F 66 °F 29.9 in NE 2.4 mph 2.4 mph 41 % 0 in
11:14 93.2 °F 66 °F 29.9 in ENE 1.2 mph 1.2 mph 41 % 0 in
11:19 94.3 °F 66.9 °F 29.9 in North 2.3 mph 2.3 mph 41 % 0 in
11:24 95.2 °F 66.4 °F 29.9 in NNW 1.4 mph   39 % 0 in
11:29 95.4 °F 66.6 °F 29.9 in NW 1.4 mph 1.4 mph 39 % 0 in
11:34 95.4 °F 65.7 °F 29.9 in ENE 2.3 mph 2.3 mph 38 % 0 in
11:39 96.4 °F 65.8 °F 29.9 in ESE 2.3 mph 2.3 mph 37 % 0 in
11:44 96.6 °F 65.3 °F 29.9 in ESE 2.3 mph 2.3 mph 36 % 0 in
11:49 97.2 °F 66.6 °F 29.9 in SW 2.3 mph 2.3 mph 37 % 0 in
11:54 96.8 °F 64.6 °F 29.9 in ESE 3.5 mph 3.5 mph 35 % 0 in
11:59 97.2 °F 65.8 °F 29.9 in South 4.6 mph 4.6 mph 36 % 0 in
12:04 98.6 °F 65.5 °F 29.9 in South 1.2 mph 1.2 mph 34 % 0 in
12:09 98.4 °F 65.1 °F 29.9 in SW 3.5 mph 3.5 mph 34 % 0 in
12:14 97.5 °F 62.8 °F 29.9 in ESE 5.8 mph 5.8 mph 32 % 0 in
12:19 98.1 °F 63.1 °F 29.9 in ENE 3.5 mph 3.5 mph 32 % 0 in
12:24 98.2 °F 61.5 °F 29.9 in ESE 5.8 mph 5.8 mph 30 % 0 in
12:29 98.2 °F 61.5 °F 29.9 in East 4.6 mph 4.6 mph 30 % 0 in
12:34 99.3 °F 62.4 °F 29.9 in WSW 3.5 mph 3.5 mph 30 % 0 in
12:39 99.5 °F 61.5 °F 29.9 in ENE 2.9 mph 2.9 mph 29 % 0 in
12:44 99.5 °F 61.5 °F 29.9 in East 4.6 mph 4.6 mph 29 % 0 in
12:49 100.9 °F 62.8 °F 29.9 in SSE 2.3 mph 2.3 mph 29 % 0 in
12:54 100 °F 63 °F 29.9 in East 9.2 mph 9.2 mph 30 % 0 in
12:59 98.2 °F 65.8 °F 29.9 in East 9.2 mph 9.2 mph 35 % 0 in
13:04 96.4 °F 65.1 °F 29.9 in ENE 10.4 mph 10.4 mph 36 % 0 in
13:09 95.4 °F 65.7 °F 29.9 in East 6.9 mph 6.9 mph 38 % 0 in
13:14 95 °F 66.9 °F 29.9 in ESE 8.1 mph 8.1 mph 40 % 0 in
13:19 94.5 °F 67.8 °F 29.9 in ESE 8.1 mph 8.1 mph 42 % 0 in
13:24 94.8 °F 68.2 °F 29.9 in ESE 11.5 mph 11.5 mph 42 % 0 in
13:29 93.7 °F 67.8 °F 29.9 in East 10.4 mph 10.4 mph 43 % 0 in
13:34 93.4 °F 68.9 °F 29.9 in ENE 18.7 mph 18.7 mph 45 % 0 in
13:39 92.7 °F 68.9 °F 29.9 in SE 15.2 mph 15.2 mph 46 % 0 in
13:44 92.1 °F 68.4 °F 29.9 in ESE 12.7 mph 12.7 mph 46 % 0 in
13:49 92.3 °F 69.3 °F 29.9 in ENE 8.1 mph 8.1 mph 47 % 0 in
13:54 91.8 °F 69.3 °F 29.9 in East 9.2 mph 9.2 mph 48 % 0 in
13:59 91.2 °F 69.4 °F 29.9 in East 8.1 mph 8.1 mph 49 % 0 in
14:04 91 °F 69.8 °F 29.9 in ESE 9.2 mph 9.2 mph 50 % 0 in
14:09 91.4 °F 69.6 °F 29.9 in NE 13.8 mph 13.8 mph 49 % 0 in
14:14 89.8 °F 68.7 °F 29.9 in ESE 11.5 mph 11.5 mph 50 % 0 in
14:19 89.1 °F 68.5 °F 29.9 in ESE 16.1 mph 16.1 mph 51 % 0 in
14:24 89.4 °F 68.9 °F 29.9 in NE 13.8 mph 13.8 mph 51 % 0 in
14:25 89.1 °F 68.5 °F 29.9 in NNE 15 mph 15 mph 51 % 0 in
14:30 88.7 °F 68.7 °F 29.9 in ENE 9.2 mph 9.2 mph 52 % 0 in
14:35 88.2 °F 68.4 °F 29.9 in ENE 10.4 mph 10.4 mph 52 % 0 in
14:40 87.6 °F 68.9 °F 29.9 in ESE 10.7 mph 10.7 mph 54 % 0 in
14:45 88.3 °F 69.6 °F 29.9 in SSE 8.1 mph 8.1 mph 54 % 0 in
14:50 87.8 °F 69.1 °F 29.9 in ENE 6.9 mph 6.9 mph 54 % 0 in
14:55 87.8 °F 69.1 °F 29.9 in North 9.2 mph 9.2 mph 54 % 0 in
15:00 87.4 °F 69.3 °F 29.9 in ENE 10.4 mph 10.4 mph 55 % 0 in
15:05 87.1 °F 69.1 °F 29.9 in NE 8.1 mph 8.1 mph 55 % 0 in
15:10 87.1 °F 69.1 °F 29.9 in ENE 8.1 mph 8.1 mph 55 % 0 in
15:15 86.9 °F 68.4 °F 29.9 in NE 8.1 mph 8.1 mph 54 % 0 in
15:20 87.6 °F 68.9 °F 29.9 in East 5.8 mph 6.7 mph 54 % 0 in
15:25 87.1 °F 67.3 °F 29.9 in ESE 9.2 mph 9.2 mph 52 % 0 in
15:30 87.6 °F 66 °F 29.9 in SE 12.7 mph 12.7 mph 49 % 0 in
15:35 88 °F 65.1 °F 29.9 in ENE 12.7 mph 12.7 mph 47 % 0 in
15:36 88 °F 64.6 °F 29.9 in East 12.7 mph 12.7 mph 46 % 0 in
15:41 88.9 °F 64.8 °F 29.9 in East 5.9 mph 5.9 mph 45 % 0 in
15:46 89.6 °F 64.8 °F 29.9 in ESE 5.8 mph 5.8 mph 44 % 0 in
15:51 89.8 °F 64.9 °F 29.9 in ENE 8.1 mph 8.1 mph 44 % 0 in
15:56 90 °F 64.6 °F 29.9 in ENE 11.2 mph 11.2 mph 43 % 0 in
16:01 90.7 °F 65.1 °F 29.9 in East 8.1 mph 8.1 mph 43 % 0 in
16:06 90.5 °F 64.9 °F 29.9 in South 10.4 mph 10.4 mph 43 % 0 in
16:11 90 °F 64.6 °F 29.9 in SE 9.2 mph 9.2 mph 43 % 0 in
16:16 90.7 °F 64.4 °F 29.9 in ESE 10.9 mph 10.9 mph 42 % 0 in
16:21 90.9 °F 64.6 °F 29.9 in ENE 8.1 mph 8.1 mph 42 % 0 in
16:26 91.4 °F 63.7 °F 29.9 in East 6.9 mph 6.9 mph 40 % 0 in
16:31 91.6 °F 63.9 °F 29.9 in ENE 8.1 mph 8.1 mph 40 % 0 in
16:36 92.1 °F 63 °F 29.9 in ESE 8.5 mph 8.5 mph 38 % 0 in
16:41 91.8 °F 63.3 °F 29.9 in East 6.9 mph 6.9 mph 39 % 0 in
16:46 91.9 °F 62.8 °F 29.9 in ESE 8.5 mph 8.5 mph 38 % 0 in
16:51 92.5 °F 63.1 °F 29.9 in ESE 9.8 mph 9.8 mph 38 % 0 in
16:56 92.7 °F 63.3 °F 29.9 in ESE 9.2 mph 9.2 mph 38 % 0 in
17:01 92.7 °F 64 °F 29.9 in East 8.1 mph 8.1 mph 39 % 0 in
17:06 92.7 °F 62.6 °F 29.9 in ESE 10.7 mph 10.7 mph 37 % 0 in
17:11 93.2 °F 63.9 °F 29.9 in ESE 5.8 mph 5.8 mph 38 % 0 in
17:16 93 °F 63.7 °F 29.9 in NNE 8.1 mph 8.1 mph 38 % 0 in
17:21 92.8 °F 63.5 °F 29.9 in East 8.1 mph 8.1 mph 38 % 0 in
17:26 93.4 °F 64 °F 29.9 in ESE 6.9 mph 6.9 mph 38 % 0 in
17:31 93.6 °F 64 °F 29.9 in ESE 5.8 mph 5.8 mph 38 % 0 in
17:36 93.4 °F 64 °F 29.9 in ENE 6.9 mph 6.9 mph 38 % 0 in
17:41 93.6 °F 64 °F 29.9 in ENE 8.1 mph 8.1 mph 38 % 0 in
17:51 93.7 °F 63.5 °F 29.9 in NE 5.6 mph 5.6 mph 37 % 0 in
17:56 93.6 °F 63.3 °F 29.9 in ENE 8.7 mph 8.7 mph 37 % 0 in
18:01 93.6 °F 62.6 °F 29.9 in East 8.1 mph 8.1 mph 36 % 0 in
18:06 93.6 °F 61.9 °F 29.9 in ESE 9.7 mph 9.7 mph 35 % 0 in
18:11 93.6 °F 62.6 °F 29.9 in ENE 5.8 mph 5.8 mph 36 % 0 in
18:16 93.9 °F 62.1 °F 29.9 in ENE 5.8 mph 5.8 mph 35 % 0 in
18:21 94.3 °F 63.1 °F 29.9 in ESE 7.6 mph 7.6 mph 36 % 0 in
18:26 94.3 °F 61.5 °F 29.9 in NE 5.8 mph 5.8 mph 34 % 0 in
18:31 94.5 °F 62.6 °F 29.9 in NW 2.4 mph 2.4 mph 35 % 0 in
18:36 94.8 °F 63 °F 29.9 in East 2.6 mph   35 % 0 in
18:41 94.5 °F 62.6 °F 29.9 in West 3.5 mph 3.5 mph 35 % 0 in
18:46 95.7 °F 62.1 °F 29.9 in South 4.6 mph 4.6 mph 33 % 0 in
18:51 96.1 °F 60.6 °F 29.9 in South 4.6 mph 4.6 mph 31 % 0 in
18:56 96.6 °F 61 °F 29.9 in West 2.3 mph 2.3 mph 31 % 0 in
19:01 97.2 °F 60.6 °F 29.9 in SW 1.2 mph 1.2 mph 30 % 0 in
19:06 96.4 °F 59.9 °F 29.9 in SE 3.5 mph 3.5 mph 30 % 0 in
19:11 95.7 °F 59.4 °F 29.9 in East 1.6 mph   30 % 0 in
19:21 94.3 °F 59.9 °F 29.8 in ESE 4.6 mph 4.6 mph 32 % 0 in
19:25 83.1 °F 54.1 °F 29.9 in NNE 1 mph 1 mph 37 % 0 in
19:26 93.9 °F 59.5 °F 29.8 in ENE 6.9 mph 6.9 mph 32 % 0 in
19:31 93.9 °F 58.6 °F 29.9 in South 3.5 mph 3.6 mph 31 % 0 in
19:35 82.4 °F 53.4 °F 29.9 in NE 1 mph 2 mph 37 % 0 in
19:36 94.1 °F 59.7 °F 29.9 in ESE 2.4 mph 2.4 mph 32 % 0 in
19:41 93.7 °F 59.4 °F 29.9 in ESE 4.6 mph 4.6 mph 32 % 0 in
19:45 81.9 °F 53.8 °F 29.9 in Calm   2 mph 38 % 0 in
19:46 93.4 °F 58.3 °F 29.9 in ESE 8.1 mph 8.1 mph 31 % 0 in
19:51 93.2 °F 59 °F 29.9 in ESE 7.6 mph 7.6 mph 32 % 0 in
19:55 81.3 °F 54 °F 29.9 in ENE 1 mph 3 mph 39 % 0 in
19:56 93 °F 59.7 °F 29.9 in ENE 3.5 mph 3.5 mph 33 % 0 in
20:01 92.8 °F 59.5 °F 29.9 in ESE 4.6 mph 4.6 mph 33 % 0 in
20:05 80.6 °F 53.4 °F 29.9 in Calm   2 mph 39 % 0 in
20:06 93 °F 59.7 °F 29.9 in East 4.6 mph 4.6 mph 33 % 0 in
20:11 92.7 °F 59.4 °F 29.9 in East 3.5 mph 3.5 mph 33 % 0 in
20:15 80.6 °F 54 °F 29.9 in NE 1 mph 2 mph 40 % 0 in
20:16 92.5 °F 59.2 °F 29.9 in East 2.3 mph 2.3 mph 33 % 0 in
20:21 92.5 °F 59.2 °F 29.9 in ESE 2.3 mph 2.3 mph 33 % 0 in
20:25 80.2 °F 54.3 °F 29.9 in NNE 2 mph 2 mph 41 % 0 in
20:26 92.7 °F 58.5 °F 29.9 in Calm     32 % 0 in
20:32 92.7 °F 58.5 °F 29.9 in Calm     32 % 0 in
20:35 80.1 °F 54.9 °F 29.9 in NE 1 mph 2 mph 42 % 0 in
20:37 92.3 °F 58.3 °F 29.9 in WNW 1.2 mph   32 % 0 in
20:42 92.3 °F 57.4 °F 29.9 in WSW 2.3 mph 2.3 mph 31 % 0 in
20:45 79.7 °F 54.7 °F 29.9 in ENE 1 mph 3 mph 42 % 0 in
20:47 92.3 °F 56.5 °F 29.9 in Calm     30 % 0 in
20:52 92.1 °F 56.1 °F 29.9 in Calm     30 % 0 in
20:55 79.2 °F 54.7 °F 29.9 in Calm   2 mph 43 % 0 in
20:57 91.8 °F 55.9 °F 29.9 in SW 1.4 mph 1.4 mph 30 % 0 in
21:02 91.6 °F 54.9 °F 29.9 in Calm     29 % 0 in
21:05 78.8 °F 55 °F 29.9 in ENE 2 mph 2 mph 44 % 0 in
21:07 91.4 °F 54.7 °F 29.9 in Calm     29 % 0 in
21:12 91 °F 56.1 °F 29.9 in WNW 2 mph   31 % 0 in
21:15 78.4 °F 54.7 °F 29.9 in Calm     44 % 0 in
21:17 90.9 °F 55 °F 29.9 in Calm     30 % 0 in
21:22 90.7 °F 55 °F 29.9 in Calm     30 % 0 in
21:25 78.1 °F 56.8 °F 29.9 in NE 1 mph 2 mph 48 % 0 in
21:27 90.3 °F 54.7 °F 29.9 in Calm     30 % 0 in
21:32 90 °F 54.3 °F 29.9 in North 1.2 mph 1.2 mph 30 % 0 in
21:35 77.7 °F 58.1 °F 29.9 in NE 1 mph 2 mph 51 % 0 in
21:37 89.8 °F 55 °F 29.9 in NNW 1.2 mph 1.2 mph 31 % 0 in
21:42 89.6 °F 54.1 °F 29.9 in Calm     30 % 0 in
21:45 77.4 °F 58.8 °F 29.9 in NE 1 mph 2 mph 53 % 0 in
21:47 89.4 °F 54 °F 29.9 in Calm     30 % 0 in
21:52 89.2 °F 53.8 °F 29.9 in Calm     30 % 0 in
21:55 77 °F 59.2 °F 29.9 in ENE 2 mph 2 mph 54 % 0 in
21:57 89.2 °F 54.7 °F 29.9 in NNW 1.2 mph   31 % 0 in
22:02 89.1 °F 54.5 °F 29.9 in Calm     31 % 0 in
22:05 76.6 °F 59.7 °F 29.9 in NNE 1 mph 3 mph 56 % 0 in
22:07 88.7 °F 54.1 °F 29.9 in Calm     31 % 0 in
22:12 88.5 °F 54.9 °F 29.9 in Calm     32 % 0 in
22:15 76.5 °F 61.2 °F 29.9 in NNE 1 mph 2 mph 59 % 0 in
22:17 88.2 °F 54.7 °F 29.9 in NNW 1.2 mph 1.4 mph 32 % 0 in
22:22 88 °F 54.3 °F 29.9 in NNW 1.2 mph   32 % 0 in
22:25 76.1 °F 60.3 °F 29.9 in NE 2 mph 2 mph 58 % 0 in
22:27 87.8 °F 54.3 °F 29.9 in Calm     32 % 0 in
22:32 87.6 °F 55 °F 29.9 in Calm     33 % 0 in
22:35 76.1 °F 60.6 °F 29.9 in NNE 2 mph 2 mph 59 % 0 in
22:37 87.3 °F 54.7 °F 29.9 in NNE 0.9 mph   33 % 0 in
22:42 87.1 °F 54.5 °F 29.9 in NNE 1.4 mph 1.4 mph 33 % 0 in
22:45 75.7 °F 61 °F 29.9 in Calm   2 mph 60 % 0 in
22:47 86.7 °F 54.1 °F 29.9 in NNE 1.2 mph   33 % 0 in
22:52 86.5 °F 54.9 °F 29.9 in NNE 1.2 mph   34 % 0 in
22:55 75.6 °F 61.2 °F 29.9 in NE 1 mph 2 mph 61 % 0 in
22:57 86.4 °F 54.7 °F 29.9 in NNE 1.2 mph   34 % 0 in
23:02 86.2 °F 54.5 °F 29.9 in Calm     34 % 0 in
23:05 75.4 °F 61 °F 29.9 in NE 2 mph 2 mph 61 % 0 in
23:07 86 °F 54.3 °F 29.9 in Calm     34 % 0 in
23:12 86 °F 54.3 °F 29.9 in Calm     34 % 0 in
23:15 75.2 °F 61.3 °F 29.9 in Calm   2 mph 62 % 0 in
23:17 85.6 °F 54.9 °F 29.9 in Calm     35 % 0 in
23:22 85.5 °F 54.7 °F 29.9 in Calm     35 % 0 in
23:25 75 °F 61.5 °F 29.9 in Calm     63 % 0 in
23:27 85.3 °F 54.5 °F 29.9 in Calm     35 % 0 in
23:32 85.3 °F 54.5 °F 29.9 in Calm     35 % 0 in
23:35 74.7 °F 61.7 °F 29.9 in Calm   1 mph 64 % 0 in
23:37 85.1 °F 54.3 °F 29.9 in Calm     35 % 0 in
23:42 85.1 °F 54.3 °F 29.9 in Calm     35 % 0 in
23:45 74.3 °F 61.3 °F 29.9 in Calm     64 % 0 in
23:47 85.1 °F 54.3 °F 29.9 in Calm     35 % 0 in
23:52 84.9 °F 54.1 °F 29.9 in Calm     35 % 0 in
23:55 74.1 °F 61.2 °F 29.9 in Calm     64 % 0 in
23:57 84.7 °F 54.1 °F 29.9 in Calm     35 % 0 in
Meteo Sesrovires
Elogis d' Weather Underground - 3.75 mb

Guio original per  Jim McMurry - jmcmurry@mwt.net Adaptat per a la plantilla per  Wim van der Kuil - Leuven-Template.eu

Trobareu la nostra informacio del temps tambe a:

Weather Underground

AWEKAS